Time;durP1;ratioP1;P1;durP2;ratioP2;P2;SDS_P1;SDS_P2;PMS_P1;PMS_P2;Temp;Humidity;BMP_temperature;BMP_pressure;BME280_temperature;BME280_humidity;BME280_pressure;Samples;Min_cycle;Max_cycle;Signal;HPM_P1;HPM_P2
2023/03/18 00:01:06;;;;;;;11.97;8.30;;;;;;;4.56;63.54;97482.78;4928347;29;20283;-78
2023/03/18 00:03:36;;;;;;;13.87;8.30;;;;;;;4.49;63.68;97488.88;4925966;29;20204;-80
2023/03/18 00:06:14;;;;;;;13.37;8.70;;;;;;;4.51;64.17;97491.44;4915307;29;20744;-84
2023/03/18 00:08:42;;;;;;;14.07;8.90;;;;;;;4.49;63.63;97473.47;4914402;29;20207;-81
2023/03/18 00:11:10;;;;;;;14.83;8.07;;;;;;;4.54;63.34;97476.84;4913834;29;20207;-81
2023/03/18 00:13:37;;;;;;;14.43;8.40;;;;;;;4.56;63.53;97475.09;4898213;29;20727;-84
2023/03/18 00:16:05;;;;;;;19.23;9.33;;;;;;;4.59;63.28;97471.66;4897441;29;20210;-85
2023/03/18 00:18:33;;;;;;;17.60;9.97;;;;;;;4.49;64.62;97470.09;4914477;29;20285;-86
2023/03/18 00:21:02;;;;;;;16.07;8.83;;;;;;;4.59;64.34;97472.50;4914618;29;20235;-86
2023/03/18 00:23:30;;;;;;;13.80;8.67;;;;;;;4.53;64.35;97464.06;4915895;29;20191;-81
2023/03/18 00:26:01;;;;;;;16.20;9.30;;;;;;;4.58;64.16;97455.41;4920485;29;20205;-82
2023/03/18 00:28:30;;;;;;;14.83;9.10;;;;;;;4.69;63.88;97455.25;4910020;29;20774;-80
2023/03/18 00:31:10;;;;;;;17.40;10.57;;;;;;;4.73;63.93;97442.34;4922514;29;20203;-73
2023/03/18 00:33:39;;;;;;;15.53;9.50;;;;;;;4.65;64.52;97446.75;4933345;29;20192;-73
2023/03/18 00:36:08;;;;;;;16.17;9.93;;;;;;;4.59;65.12;97454.53;4930553;29;20212;-75
2023/03/18 00:38:36;;;;;;;14.97;10.27;;;;;;;4.52;64.37;97452.94;4930025;29;20584;-81
2023/03/18 00:41:10;;;;;;;14.00;8.80;;;;;;;4.44;64.85;97447.09;4909519;29;20231;-78
2023/03/18 00:43:51;;;;;;;12.73;9.27;;;;;;;4.24;65.85;97436.28;4930797;29;20192;-84
2023/03/18 00:46:25;;;;;;;14.20;8.43;;;;;;;4.33;65.00;97436.13;4896728;29;20686;-84
2023/03/18 00:48:54;;;;;;;13.87;8.43;;;;;;;4.21;65.51;97441.44;4923117;29;20200;-83
2023/03/18 00:51:23;;;;;;;14.07;8.67;;;;;;;4.19;66.00;97437.19;4901900;29;20209;-82
2023/03/18 00:53:54;;;;;;;14.80;9.23;;;;;;;4.07;66.48;97433.13;4900703;29;20196;-81
2023/03/18 00:56:22;;;;;;;13.23;8.37;;;;;;;4.17;66.49;97433.81;4913284;29;20575;-81
2023/03/18 00:58:51;;;;;;;14.23;9.17;;;;;;;4.16;66.38;97433.00;4913077;29;20247;-81
2023/03/18 01:01:19;;;;;;;14.03;8.87;;;;;;;4.03;66.35;97416.09;4928786;29;20258;-86
2023/03/18 01:03:48;;;;;;;13.50;8.07;;;;;;;3.88;66.28;97398.34;4901378;29;20199;-81
2023/03/18 01:06:19;;;;;;;11.30;8.30;;;;;;;3.85;67.04;97429.97;4902440;29;20205;-83
2023/03/18 01:08:46;;;;;;;12.20;7.93;;;;;;;3.97;67.19;97421.31;4896239;29;20649;-86
2023/03/18 01:11:14;;;;;;;11.93;7.47;;;;;;;3.77;67.07;97403.63;4884548;29;20700;-84
2023/03/18 01:13:41;;;;;;;12.70;7.83;;;;;;;3.92;66.82;97418.78;4879840;29;20318;-83
2023/03/18 01:16:09;;;;;;;11.20;7.40;;;;;;;3.81;67.58;97430.88;4903056;29;20980;-79
2023/03/18 01:18:37;;;;;;;11.00;7.47;;;;;;;3.80;67.91;97430.91;4909917;29;20203;-81
2023/03/18 01:21:04;;;;;;;13.07;8.20;;;;;;;3.83;67.15;97415.53;4912284;29;20246;-75
2023/03/18 01:23:37;;;;;;;10.67;7.30;;;;;;;4.00;67.31;97426.38;4908519;29;20202;-73
2023/03/18 01:26:04;;;;;;;11.73;7.50;;;;;;;4.08;66.82;97420.25;4882910;29;20202;-84
2023/03/18 01:28:33;;;;;;;10.87;6.97;;;;;;;4.02;67.26;97422.06;4879484;29;20596;-80
2023/03/18 01:31:00;;;;;;;11.10;7.40;;;;;;;3.96;67.60;97417.88;4897123;29;20232;-81
2023/03/18 01:33:28;;;;;;;12.57;7.33;;;;;;;3.88;67.58;97416.28;4896110;29;20201;-74
2023/03/18 01:35:58;;;;;;;9.67;6.93;;;;;;;3.52;68.04;97391.19;4881880;29;20269;-76
2023/03/18 01:38:29;;;;;;;11.37;7.27;;;;;;;3.68;67.94;97420.84;4879864;29;20208;-76
2023/03/18 01:41:01;;;;;;;14.20;7.27;;;;;;;3.49;69.70;97421.91;4880186;29;20223;-75
2023/03/18 01:43:35;;;;;;;10.87;7.10;;;;;;;3.55;68.82;97420.13;4892275;29;20203;-75
2023/03/18 01:46:33;;;;;;;9.53;6.67;;;;;;;3.60;68.87;97422.66;4879259;29;20191;-78
2023/03/18 01:49:06;;;;;;;8.73;6.13;;;;;;;3.72;68.08;97419.94;4865145;29;20191;-75
2023/03/18 01:51:34;;;;;;;8.47;5.90;;;;;;;3.89;68.14;97412.88;4898956;29;20653;-80
2023/03/18 01:54:03;;;;;;;9.90;6.27;;;;;;;3.86;67.85;97412.91;4878028;29;20191;-79
2023/03/18 01:56:35;;;;;;;10.53;6.30;;;;;;;3.90;67.57;97414.56;4893319;29;20286;-79
2023/03/18 01:59:05;;;;;;;11.70;5.70;;;;;;;3.68;67.84;97418.28;4892409;29;20269;-81
2023/03/18 02:01:39;;;;;;;9.43;6.13;;;;;;;3.64;68.22;97411.50;4876152;29;20227;-77
2023/03/18 02:04:09;;;;;;;9.37;6.33;;;;;;;3.68;68.11;97414.00;4878286;29;20202;-73
2023/03/18 02:06:39;;;;;;;8.87;5.67;;;;;;;3.76;68.31;97401.09;4876521;29;20289;-75
2023/03/18 02:09:07;;;;;;;8.20;5.17;;;;;;;3.81;67.38;97410.41;4875810;29;20202;-76
2023/03/18 02:11:41;;;;;;;9.27;6.03;;;;;;;3.49;68.66;97392.06;4892162;29;20207;-76
2023/03/18 02:14:12;;;;;;;7.40;5.30;;;;;;;3.44;68.84;97405.78;4872947;29;20231;-84
2023/03/18 02:17:01;;;;;;;7.90;5.67;;;;;;;3.47;68.78;97392.94;4888866;29;20200;-82
2023/03/18 02:19:49;;;;;;;8.47;5.73;;;;;;;3.57;68.50;97389.38;4873041;29;20209;-84
2023/03/18 02:22:38;;;;;;;7.70;5.40;;;;;;;3.56;68.22;97393.69;4887921;29;20230;-79
2023/03/18 02:25:44;;;;;;;7.97;5.47;;;;;;;3.72;67.75;97404.56;4888221;29;20204;-76
2023/03/18 02:28:17;;;;;;;9.90;5.90;;;;;;;3.76;66.83;97411.34;4873270;29;20202;-79
2023/03/18 02:30:50;;;;;;;9.50;6.60;;;;;;;3.38;67.78;97409.25;4891304;29;20200;-73
2023/03/18 02:33:21;;;;;;;9.03;6.20;;;;;;;3.06;68.34;97409.63;4877288;29;20930;-81
2023/03/18 02:35:54;;;;;;;8.33;5.60;;;;;;;2.72;69.23;97415.91;4874910;29;20204;-75
2023/03/18 02:38:21;;;;;;;9.20;6.17;;;;;;;2.63;68.84;97405.78;4895345;29;20567;-72
2023/03/18 02:40:49;;;;;;;7.07;5.70;;;;;;;2.42;69.71;97400.84;4877198;29;20643;-78
2023/03/18 02:43:29;;;;;;;8.27;5.40;;;;;;;2.64;68.92;97416.88;4873337;29;20243;-84
2023/03/18 02:46:30;;;;;;;10.07;6.00;;;;;;;2.53;69.09;97377.75;4889146;29;20188;-76
2023/03/18 02:49:00;;;;;;;12.00;6.63;;;;;;;2.95;67.52;97411.44;4867208;29;20206;-78
2023/03/18 02:51:28;;;;;;;10.27;6.03;;;;;;;2.80;67.53;97414.16;4872908;29;20196;-74
2023/03/18 02:54:01;;;;;;;7.37;5.20;;;;;;;2.66;68.22;97418.53;4888354;29;20223;-74
2023/03/18 02:56:28;;;;;;;8.40;5.27;;;;;;;2.64;68.46;97422.81;4904562;29;20202;-73
2023/03/18 02:58:56;;;;;;;8.60;5.53;;;;;;;2.67;67.85;97415.13;4878017;29;20200;-76
2023/03/18 03:01:24;;;;;;;10.17;5.13;;;;;;;2.72;67.68;97426.13;4881036;29;20299;-79
2023/03/18 03:03:51;;;;;;;12.23;6.40;;;;;;;2.86;66.66;97418.34;4898074;29;20187;-74
2023/03/18 03:06:18;;;;;;;9.53;5.87;;;;;;;2.86;67.09;97424.34;4879346;29;20290;-73
2023/03/18 03:08:45;;;;;;;10.33;6.80;;;;;;;2.84;66.97;97408.16;4892540;29;20203;-75
2023/03/18 03:11:13;;;;;;;8.33;5.60;;;;;;;2.82;66.73;97422.66;4878206;29;20196;-73
2023/03/18 03:13:41;;;;;;;7.17;5.00;;;;;;;2.89;66.62;97410.63;4880054;29;20232;-76
2023/03/18 03:16:12;;;;;;;8.97;4.80;;;;;;;2.96;66.13;97414.84;4875502;29;20207;-74
2023/03/18 03:18:40;;;;;;;7.67;5.83;;;;;;;2.85;66.44;97412.38;4877337;29;20220;-71
2023/03/18 03:21:10;;;;;;;7.77;5.13;;;;;;;2.73;67.88;97422.75;4876763;29;20317;-73
2023/03/18 03:23:38;;;;;;;7.90;5.53;;;;;;;2.78;67.10;97413.28;4876644;29;20191;-73
2023/03/18 03:26:06;;;;;;;8.83;5.80;;;;;;;2.92;66.58;97419.16;4888295;29;20575;-75
2023/03/18 03:28:34;;;;;;;9.53;5.97;;;;;;;2.94;66.51;97412.31;4873963;29;20279;-73
2023/03/18 03:31:01;;;;;;;10.33;6.60;;;;;;;2.74;65.94;97401.41;4873369;29;20196;-79
2023/03/18 03:33:28;;;;;;;12.03;7.17;;;;;;;2.79;66.18;97414.16;4874433;29;20632;-76
2023/03/18 03:35:57;;;;;;;12.20;7.57;;;;;;;2.57;66.91;97400.72;4888651;29;20202;-73
2023/03/18 03:38:25;;;;;;;11.00;6.83;;;;;;;2.83;67.73;97414.13;4900477;29;20195;-73
2023/03/18 03:40:53;;;;;;;14.80;7.07;;;;;;;2.86;66.99;97398.75;4895744;29;20646;-76
2023/03/18 03:43:21;;;;;;;11.63;7.50;;;;;;;2.94;66.55;97414.88;4905578;29;20191;-75
2023/03/18 03:45:48;;;;;;;13.43;7.80;;;;;;;2.81;66.36;97420.09;4899454;29;20206;-81
2023/03/18 03:48:15;;;;;;;13.10;7.60;;;;;;;2.67;67.52;97412.56;4913030;29;20195;-78
2023/03/18 03:50:42;;;;;;;11.17;7.33;;;;;;;2.59;67.35;97419.47;4912927;29;20202;-84
2023/03/18 03:53:09;;;;;;;13.93;7.90;;;;;;;2.73;67.88;97414.22;4911937;29;20202;-82
2023/03/18 03:55:37;;;;;;;16.77;7.83;;;;;;;2.85;67.49;97416.66;4895965;29;20207;-85
2023/03/18 03:58:04;;;;;;;13.13;8.20;;;;;;;2.96;67.33;97414.84;4894536;29;20588;-82
2023/03/18 04:00:32;;;;;;;11.00;6.70;;;;;;;2.92;67.25;97408.91;4895092;29;20205;-84
2023/03/18 04:02:59;;;;;;;11.07;7.17;;;;;;;2.95;67.49;97414.00;4913080;29;20215;-81
2023/03/18 04:05:28;;;;;;;11.33;7.87;;;;;;;3.03;66.85;97416.50;4902744;29;20578;-82
2023/03/18 04:08:00;;;;;;;11.53;7.57;;;;;;;2.82;67.33;97420.09;4900635;29;20755;-82
2023/03/18 04:10:35;;;;;;;12.03;7.90;;;;;;;2.54;68.07;97423.75;4910496;29;20187;-82
2023/03/18 04:13:04;;;;;;;12.27;7.00;;;;;;;2.40;68.80;97397.47;4910272;29;20241;-84
2023/03/18 04:15:32;;;;;;;11.93;7.53;;;;;;;2.55;69.10;97415.22;4909455;29;20195;-83
2023/03/18 04:18:06;;;;;;;9.97;7.03;;;;;;;2.47;68.86;97397.38;4895838;29;20198;-77
2023/03/18 04:20:37;;;;;;;11.27;6.83;;;;;;;2.62;68.71;97416.03;4911228;29;20254;-80
2023/03/18 04:23:13;;;;;;;11.07;7.77;;;;;;;2.25;70.27;97407.78;4902091;29;20630;-83
2023/03/18 04:25:40;;;;;;;11.17;7.03;;;;;;;2.29;70.08;97422.25;4897564;29;20223;-83
2023/03/18 04:28:07;;;;;;;9.00;6.70;;;;;;;2.35;69.90;97415.38;4895021;29;20274;-78
2023/03/18 04:30:36;;;;;;;10.13;6.87;;;;;;;2.38;69.61;97417.06;4897680;29;20191;-75
2023/03/18 04:33:08;;;;;;;11.57;7.13;;;;;;;1.98;68.97;97339.06;4898497;29;20192;-76
2023/03/18 04:35:41;;;;;;;9.83;6.30;;;;;;;2.27;69.56;97408.63;4898039;29;20270;-76
2023/03/18 04:38:10;;;;;;;8.30;6.33;;;;;;;2.45;70.34;97413.63;4904924;29;20210;-75
2023/03/18 04:40:38;;;;;;;9.27;6.33;;;;;;;2.46;69.33;97411.03;4905833;29;20191;-82
2023/03/18 04:43:05;;;;;;;8.67;6.53;;;;;;;2.42;70.29;97427.25;4902804;29;20214;-75
2023/03/18 04:45:32;;;;;;;10.13;6.53;;;;;;;2.38;69.62;97414.50;4901842;29;20199;-73
2023/03/18 04:48:01;;;;;;;8.50;5.77;;;;;;;2.35;70.17;97406.84;4886536;29;20282;-81
2023/03/18 04:50:32;;;;;;;12.60;5.80;;;;;;;2.53;69.35;97416.09;4898741;29;20191;-82
2023/03/18 04:53:00;;;;;;;10.07;6.37;;;;;;;2.46;69.08;97428.06;4896879;29;20192;-78
2023/03/18 04:55:29;;;;;;;8.43;6.53;;;;;;;2.42;69.73;97414.47;4898420;29;20199;-84
2023/03/18 04:57:59;;;;;;;11.63;7.57;;;;;;;2.32;69.53;97419.69;4879743;29;20183;-83
2023/03/18 05:00:30;;;;;;;12.23;6.70;;;;;;;2.36;70.20;97427.31;4910120;29;20199;-82
2023/03/18 05:03:11;;;;;;;10.00;6.73;;;;;;;2.49;69.43;97426.34;4902550;29;20203;-83
2023/03/18 05:05:38;;;;;;;10.20;7.03;;;;;;;2.79;68.47;97422.69;4904864;29;20211;-85
2023/03/18 05:08:09;;;;;;;9.63;6.73;;;;;;;3.00;67.99;97422.47;4883890;29;20233;-81
2023/03/18 05:10:36;;;;;;;10.10;6.97;;;;;;;2.94;67.99;97426.81;4881605;29;20232;-80
2023/03/18 05:13:03;;;;;;;11.73;7.57;;;;;;;2.88;67.71;97427.72;4879336;29;20227;-84
2023/03/18 05:15:33;;;;;;;10.50;7.13;;;;;;;2.96;68.25;97433.59;4895097;29;20195;-76
2023/03/18 05:18:01;;;;;;;11.50;7.90;;;;;;;3.03;67.58;97422.44;4893998;29;20224;-83
2023/03/18 05:20:28;;;;;;;14.03;8.97;;;;;;;2.99;67.61;97405.41;4895006;29;20184;-77
2023/03/18 05:22:56;;;;;;;14.93;9.13;;;;;;;3.04;67.02;97388.31;4878562;29;20259;-75
2023/03/18 05:25:37;;;;;;;14.70;8.90;;;;;;;3.43;66.37;97409.19;4892480;29;20605;-77
2023/03/18 05:28:04;;;;;;;14.40;8.57;;;;;;;3.57;65.12;97426.09;4896988;29;20188;-82
2023/03/18 05:30:41;;;;;;;14.17;8.67;;;;;;;3.39;65.84;97404.97;4897188;29;20270;-82
2023/03/18 05:33:13;;;;;;;15.77;9.00;;;;;;;3.55;65.78;97409.91;4896027;29;20201;-78
2023/03/18 05:35:46;;;;;;;13.93;8.30;;;;;;;3.63;65.19;97405.53;4895548;29;20211;-75
2023/03/18 05:38:17;;;;;;;14.30;8.20;;;;;;;3.81;64.87;97419.81;4896314;29;20190;-80
2023/03/18 05:40:45;;;;;;;22.90;13.03;;;;;;;3.51;65.42;97421.03;4895707;29;20250;-81
2023/03/18 05:43:20;;;;;;;34.70;17.00;;;;;;;3.52;65.13;97422.75;4897083;29;20290;-82
2023/03/18 05:45:51;;;;;;;25.30;14.30;;;;;;;3.59;65.27;97428.63;4899512;29;20611;-81
2023/03/18 05:48:23;;;;;;;17.00;10.33;;;;;;;3.66;65.35;97422.56;4886490;29;20287;-76
2023/03/18 05:50:54;;;;;;;23.03;14.60;;;;;;;3.85;65.00;97427.41;4900004;29;20248;-76
2023/03/18 05:53:25;;;;;;;22.57;11.80;;;;;;;3.99;64.58;97417.00;4902267;29;20199;-86
2023/03/18 05:56:01;;;;;;;17.60;11.20;;;;;;;4.28;64.02;97412.31;4895837;29;20208;-78
2023/03/18 05:58:30;;;;;;;14.43;9.10;;;;;;;4.64;63.02;97406.56;4891980;29;20199;-81
2023/03/18 06:01:12;;;;;;;10.27;7.73;;;;;;;4.81;63.02;97416.56;4893432;29;20347;-80
2023/03/18 06:03:40;;;;;;;12.97;6.93;;;;;;;4.99;62.11;97415.41;4893457;29;20195;-80
2023/03/18 06:06:07;;;;;;;9.50;6.57;;;;;;;4.97;61.59;97418.81;4890571;29;20196;-83
2023/03/18 06:08:34;;;;;;;11.83;6.37;;;;;;;5.02;60.63;97417.91;4893077;29;20214;-81
2023/03/18 06:11:02;;;;;;;7.67;6.33;;;;;;;4.97;61.08;97405.13;4880049;29;20205;-75
2023/03/18 06:13:29;;;;;;;10.30;6.53;;;;;;;5.07;60.78;97421.25;4876113;29;20263;-75
2023/03/18 06:15:58;;;;;;;12.63;7.13;;;;;;;5.05;60.34;97402.47;4892829;29;20256;-78
2023/03/18 06:18:27;;;;;;;9.67;6.30;;;;;;;5.06;59.86;97414.41;4908879;29;20227;-76
2023/03/18 06:20:55;;;;;;;9.93;5.90;;;;;;;4.89;60.08;97412.13;4893637;29;20193;-75
2023/03/18 06:23:22;;;;;;;8.57;6.23;;;;;;;4.91;60.78;97416.38;4876824;29;20295;-80
2023/03/18 06:25:50;;;;;;;11.77;6.37;;;;;;;5.13;61.21;97423.69;4894325;29;20187;-76
2023/03/18 06:28:19;;;;;;;10.90;7.13;;;;;;;5.22;60.34;97414.09;4893442;29;20201;-77
2023/03/18 06:30:46;;;;;;;12.73;8.07;;;;;;;5.26;59.59;97420.84;4897658;29;20193;-80
2023/03/18 06:33:14;;;;;;;10.07;6.60;;;;;;;5.47;58.37;97417.03;4911652;29;20843;-79
2023/03/18 06:35:41;;;;;;;12.83;7.37;;;;;;;5.43;58.61;97416.25;4891186;29;20577;-83
2023/03/18 06:38:09;;;;;;;12.13;6.83;;;;;;;5.41;58.03;97430.84;4892191;29;20579;-82
2023/03/18 06:40:37;;;;;;;10.27;7.23;;;;;;;5.51;58.16;97423.78;4896191;29;20207;-79
2023/03/18 06:43:06;;;;;;;11.27;7.37;;;;;;;5.61;58.32;97404.75;4893132;29;20776;-84
2023/03/18 06:45:37;;;;;;;11.97;7.50;;;;;;;5.64;58.06;97420.97;4893538;29;20194;-81
2023/03/18 06:48:09;;;;;;;12.27;7.53;;;;;;;5.78;57.64;97420.66;4897545;29;20574;-77
2023/03/18 06:50:40;;;;;;;12.43;7.77;;;;;;;5.95;57.53;97426.34;4897942;29;20200;-81
2023/03/18 06:53:17;;;;;;;10.80;7.63;;;;;;;6.13;56.27;97431.06;4898790;29;20220;-85
2023/03/18 06:55:47;;;;;;;10.80;6.63;;;;;;;6.05;56.14;97438.13;4898702;29;20363;-77
2023/03/18 06:58:17;;;;;;;11.87;7.23;;;;;;;6.06;55.19;97439.78;4894569;29;20216;-77
2023/03/18 07:00:57;;;;;;;8.53;5.80;;;;;;;6.14;55.30;97439.66;4900681;29;20716;-78
2023/03/18 07:03:28;;;;;;;10.07;6.23;;;;;;;6.15;55.06;97439.59;4891335;29;20743;-74
2023/03/18 07:05:57;;;;;;;8.57;6.57;;;;;;;6.29;55.16;97436.72;4894676;29;20191;-78
2023/03/18 07:08:24;;;;;;;11.23;6.83;;;;;;;6.30;54.72;97439.28;4924787;29;20569;-77
2023/03/18 07:10:52;;;;;;;9.33;5.83;;;;;;;6.38;52.90;97442.50;4893585;29;20201;-82
2023/03/18 07:13:24;;;;;;;12.57;6.83;;;;;;;6.35;52.92;97441.72;4892431;29;20225;-83
2023/03/18 07:15:55;;;;;;;13.97;7.67;;;;;;;6.22;53.87;97442.88;4896130;29;20698;-80
2023/03/18 07:18:23;;;;;;;14.00;7.83;;;;;;;6.40;53.29;97456.19;4900128;29;20213;-76
2023/03/18 07:20:50;;;;;;;33.03;12.97;;;;;;;6.27;54.81;97438.47;4900713;29;20208;-80
2023/03/18 07:23:17;;;;;;;6.17;3.70;;;;;;;6.22;50.48;97460.88;4904153;29;20248;-82
2023/03/18 07:25:44;;;;;;;11.23;5.83;;;;;;;6.22;51.34;97456.56;4869607;29;20204;-78
2023/03/18 07:28:11;;;;;;;12.20;5.13;;;;;;;6.15;48.13;97443.88;4894702;29;20288;-81
2023/03/18 07:30:38;;;;;;;9.10;4.53;;;;;;;6.38;48.16;97463.09;4898459;29;20588;-79
2023/03/18 07:33:08;;;;;;;5.13;2.87;;;;;;;6.14;47.22;97458.47;4909824;29;20262;-84
2023/03/18 07:35:39;;;;;;;13.07;5.93;;;;;;;6.21;46.14;97462.59;4895824;29;20339;-78
2023/03/18 07:38:08;;;;;;;3.27;2.27;;;;;;;6.13;45.96;97472.22;4916420;29;20208;-82
2023/03/18 07:40:36;;;;;;;10.03;3.00;;;;;;;5.97;45.56;97445.16;4911093;29;20203;-83
2023/03/18 07:43:04;;;;;;;4.93;3.47;;;;;;;6.34;47.08;97456.31;4915546;29;20232;-80
2023/03/18 07:45:32;;;;;;;4.17;3.03;;;;;;;6.32;45.91;97444.38;4915114;29;20194;-79
2023/03/18 07:47:59;;;;;;;8.17;4.00;;;;;;;6.36;46.83;97454.56;4892652;29;20228;-79
2023/03/18 07:50:26;;;;;;;9.73;5.50;;;;;;;6.44;46.11;97469.81;4892947;29;20273;-75
2023/03/18 07:52:53;;;;;;;6.33;3.17;;;;;;;6.45;44.51;97458.66;4895807;29;20204;-81
2023/03/18 07:55:20;;;;;;;5.00;3.00;;;;;;;6.24;43.78;97459.97;4902153;29;20199;-77
2023/03/18 07:57:48;;;;;;;10.03;5.17;;;;;;;6.21;43.28;97452.31;4900784;29;20207;-80
2023/03/18 08:00:15;;;;;;;8.93;3.77;;;;;;;6.24;43.86;97470.25;4898261;29;20223;-76
2023/03/18 08:02:42;;;;;;;7.63;3.90;;;;;;;6.23;45.33;97483.13;4905504;29;20225;-81
2023/03/18 08:05:10;;;;;;;6.33;2.13;;;;;;;6.06;43.71;97473.22;4882360;29;20294;-83
2023/03/18 08:07:37;;;;;;;7.23;3.70;;;;;;;6.26;43.83;97488.22;4898081;29;20208;-84
2023/03/18 08:10:04;;;;;;;5.73;3.30;;;;;;;6.06;43.81;97462.09;4896629;29;20243;-86
2023/03/18 08:12:31;;;;;;;9.27;4.63;;;;;;;6.23;43.94;97478.84;4896485;29;20278;-80
2023/03/18 08:15:17;;;;;;;10.03;5.47;;;;;;;6.29;44.77;97483.84;4897725;29;20211;-83
2023/03/18 08:17:44;;;;;;;8.47;4.77;;;;;;;6.45;43.94;97485.19;4897976;29;20205;-75
2023/03/18 08:20:11;;;;;;;5.60;3.10;;;;;;;6.40;42.20;97465.63;4899104;29;20235;-78
2023/03/18 08:22:38;;;;;;;7.80;4.40;;;;;;;6.34;42.14;97474.31;4896992;29;20274;-74
2023/03/18 08:25:06;;;;;;;17.17;7.80;;;;;;;6.63;43.23;97489.09;4898701;29;20214;-80
2023/03/18 08:27:33;;;;;;;6.20;3.20;;;;;;;6.31;42.07;97471.81;4896726;29;20806;-77
2023/03/18 08:30:00;;;;;;;8.20;4.93;;;;;;;6.36;42.39;97490.56;4896897;29;20201;-75
2023/03/18 08:32:31;;;;;;;3.30;1.60;;;;;;;6.08;40.21;97507.44;4897173;29;20191;-79
2023/03/18 08:34:58;;;;;;;4.10;1.60;;;;;;;5.98;40.73;97487.09;4888515;29;20232;-76
2023/03/18 08:37:25;;;;;;;10.83;3.30;;;;;;;6.19;41.07;97502.94;4900501;29;20209;-78
2023/03/18 08:39:52;;;;;;;6.23;3.40;;;;;;;6.20;41.82;97494.31;4897856;29;20201;-75
2023/03/18 08:42:19;;;;;;;3.23;1.90;;;;;;;6.33;40.26;97510.34;4909014;29;20263;-77
2023/03/18 08:44:46;;;;;;;5.43;2.50;;;;;;;6.50;40.77;97498.81;4917441;29;20193;-80
2023/03/18 08:47:16;;;;;;;5.20;2.60;;;;;;;6.27;41.08;97482.19;4897334;29;20194;-79
2023/03/18 08:49:43;;;;;;;4.70;1.97;;;;;;;6.35;41.16;97498.28;4913891;29;20751;-77
2023/03/18 08:52:10;;;;;;;2.40;1.90;;;;;;;6.34;41.20;97491.47;4913955;29;20724;-79
2023/03/18 08:54:37;;;;;;;4.17;2.30;;;;;;;6.31;41.45;97501.81;4911650;29;20596;-78
2023/03/18 08:57:05;;;;;;;5.33;2.83;;;;;;;6.47;40.85;97511.75;4912604;29;20196;-81
2023/03/18 08:59:31;;;;;;;4.90;2.13;;;;;;;6.35;42.01;97508.59;4912129;29;20200;-78
2023/03/18 09:01:58;;;;;;;3.87;2.20;;;;;;;6.31;42.57;97494.94;4912527;29;20196;-78
2023/03/18 09:04:25;;;;;;;2.40;1.80;;;;;;;6.33;42.58;97529.19;4912587;29;20284;-79
2023/03/18 09:06:53;;;;;;;2.97;1.93;;;;;;;6.12;42.21;97491.06;4912352;29;20203;-76
2023/03/18 09:09:23;;;;;;;3.90;2.00;;;;;;;6.24;43.17;97503.69;4912215;29;20215;-79
2023/03/18 09:12:10;;;;;;;4.73;2.20;;;;;;;6.30;43.07;97516.44;4912841;29;20203;-75
2023/03/18 09:14:41;;;;;;;2.57;1.77;;;;;;;6.22;44.17;97515.72;4910680;29;20278;-77
2023/03/18 09:17:08;;;;;;;2.70;2.00;;;;;;;6.25;45.07;97507.94;4911970;29;20187;-83
2023/03/18 09:19:36;;;;;;;6.87;3.53;;;;;;;6.33;45.37;97515.47;4911990;29;20304;-77
2023/03/18 09:22:03;;;;;;;4.57;2.60;;;;;;;6.38;44.77;97493.94;4894795;29;20240;-75
2023/03/18 09:24:33;;;;;;;5.20;3.13;;;;;;;6.58;44.84;97517.50;4879849;29;20197;-80
2023/03/18 09:27:00;;;;;;;3.43;2.07;;;;;;;6.41;42.93;97483.56;4910415;29;20227;-81
2023/03/18 09:29:27;;;;;;;5.07;2.20;;;;;;;6.36;43.40;97500.84;4912437;29;20197;-83
2023/03/18 09:31:55;;;;;;;5.50;2.00;;;;;;;6.47;42.97;97513.50;4912231;29;20201;-84
2023/03/18 09:34:22;;;;;;;8.07;4.40;;;;;;;6.44;42.78;97496.38;4911831;29;20254;-81
2023/03/18 09:36:51;;;;;;;3.37;1.97;;;;;;;6.49;42.00;97527.16;4902137;29;20606;-79
2023/03/18 09:39:21;;;;;;;4.10;2.00;;;;;;;6.67;42.32;97526.75;4892877;29;20186;-79
2023/03/18 09:42:16;;;;;;;3.50;2.43;;;;;;;6.70;41.84;97520.69;4875917;29;20281;-81
2023/03/18 09:44:44;;;;;;;3.67;2.00;;;;;;;6.84;40.89;97522.03;4860085;29;20206;-73
2023/03/18 09:47:22;;;;;;;10.43;2.13;;;;;;;6.47;42.40;97524.59;4892825;29;20213;-79
2023/03/18 09:50:11;;;;;;;3.47;1.93;;;;;;;6.52;42.06;97524.50;4896909;29;20196;-74
2023/03/18 09:52:51;;;;;;;6.37;2.23;;;;;;;6.53;42.22;97532.19;4894354;29;20705;-75
2023/03/18 09:55:41;;;;;;;4.23;2.10;;;;;;;6.47;42.17;97528.91;4892881;29;20292;-78
2023/03/18 09:58:39;;;;;;;4.67;2.70;;;;;;;6.27;43.96;97513.91;4894395;29;20192;-77
2023/03/18 10:01:08;;;;;;;2.93;1.80;;;;;;;6.30;44.20;97521.56;4873054;29;20202;-76
2023/03/18 10:03:43;;;;;;;2.13;1.60;;;;;;;6.12;44.29;97523.69;4891239;29;20760;-75
2023/03/18 10:06:19;;;;;;;3.83;2.47;;;;;;;6.04;45.66;97535.84;4892649;29;20216;-76
2023/03/18 10:09:07;;;;;;;3.77;2.40;;;;;;;6.21;45.58;97523.47;4892673;29;20591;-74
2023/03/18 10:12:06;;;;;;;2.20;1.77;;;;;;;6.33;46.77;97521.47;4893054;29;20239;-74
2023/03/18 10:15:09;;;;;;;4.17;3.10;;;;;;;6.43;44.91;97533.25;4894235;29;20252;-76
2023/03/18 10:18:19;;;;;;;4.37;3.37;;;;;;;6.40;46.04;97520.47;4896204;29;20693;-75
2023/03/18 10:21:31;;;;;;;4.30;2.60;;;;;;;6.59;45.54;97519.19;4893128;29;20197;-74
2023/03/18 10:24:37;;;;;;;4.27;2.60;;;;;;;6.74;45.59;97512.00;4892472;29;20224;-78
2023/03/18 10:27:57;;;;;;;3.93;2.60;;;;;;;6.86;45.10;97506.56;4895317;29;20198;-74
2023/03/18 10:31:25;;;;;;;3.70;2.03;;;;;;;6.91;46.15;97508.16;4900992;29;20701;-80
2023/03/18 10:34:37;;;;;;;3.53;2.27;;;;;;;6.89;46.05;97503.91;4890196;29;20193;-82
2023/03/18 10:37:12;;;;;;;3.60;2.43;;;;;;;7.16;45.19;97500.66;4895097;29;20210;-77
2023/03/18 10:39:40;;;;;;;3.43;2.80;;;;;;;7.49;44.24;97499.81;4893131;29;20599;-76
2023/03/18 10:42:36;;;;;;;11.00;4.30;;;;;;;7.52;43.66;97484.28;4897090;29;20258;-79
2023/03/18 10:45:27;;;;;;;6.70;4.33;;;;;;;7.85;44.14;97485.91;4875488;29;20195;-77
2023/03/18 10:48:01;;;;;;;5.00;2.70;;;;;;;7.85;44.60;97483.34;4893864;29;20212;-75
2023/03/18 10:50:38;;;;;;;7.37;3.13;;;;;;;7.96;44.95;97478.72;4891613;29;20231;-75
2023/03/18 10:53:29;;;;;;;5.23;3.07;;;;;;;7.94;44.94;97477.94;4899097;29;20218;-79
2023/03/18 10:56:09;;;;;;;9.00;3.90;;;;;;;8.14;44.46;97467.88;4897192;29;20250;-74
2023/03/18 10:58:41;;;;;;;7.10;3.30;;;;;;;8.17;43.95;97465.22;4895005;29;20242;-79
2023/03/18 11:01:11;;;;;;;4.90;2.53;;;;;;;8.25;44.62;97467.59;4898646;29;20222;-73
2023/03/18 11:03:43;;;;;;;6.20;3.67;;;;;;;8.30;44.15;97459.72;4896667;29;20223;-79
2023/03/18 11:06:18;;;;;;;6.13;3.60;;;;;;;8.34;43.88;97457.00;4881186;29;20199;-83
2023/03/18 11:08:47;;;;;;;4.93;2.63;;;;;;;8.19;43.57;97466.03;4882810;29;20657;-83
2023/03/18 11:11:17;;;;;;;5.70;2.80;;;;;;;8.21;44.40;97451.34;4899389;29;20199;-75
2023/03/18 11:13:49;;;;;;;4.50;2.80;;;;;;;8.36;44.70;97454.38;4900086;29;20274;-76
2023/03/18 11:16:29;;;;;;;6.23;2.60;;;;;;;8.48;44.11;97460.00;4892890;29;20234;-74
2023/03/18 11:18:57;;;;;;;8.83;2.80;;;;;;;8.68;43.64;97454.22;4892151;29;20258;-84
2023/03/18 11:21:27;;;;;;;5.67;3.70;;;;;;;9.06;43.43;97433.16;4897008;29;20207;-81
2023/03/18 11:24:07;;;;;;;5.90;4.00;;;;;;;9.44;42.67;97453.38;4906362;29;20257;-82
2023/03/18 11:26:57;;;;;;;5.20;3.50;;;;;;;9.63;41.49;97445.81;4914319;29;20199;-79
2023/03/18 11:29:32;;;;;;;6.27;3.33;;;;;;;9.70;40.98;97448.16;4896963;29;20234;-79
2023/03/18 11:32:00;;;;;;;8.03;2.80;;;;;;;9.93;41.21;97436.13;4895484;29;20213;-81
2023/03/18 11:34:31;;;;;;;4.70;2.43;;;;;;;9.90;40.98;97431.88;4894304;29;20218;-76
2023/03/18 11:37:03;;;;;;;6.17;3.67;;;;;;;9.90;40.93;97431.03;4899359;29;20206;-79
2023/03/18 11:39:36;;;;;;;7.53;3.10;;;;;;;9.89;40.86;97416.44;4916946;29;20282;-75
2023/03/18 11:42:20;;;;;;;4.53;3.00;;;;;;;9.66;40.93;97392.28;4915117;29;20249;-81
2023/03/18 11:44:55;;;;;;;4.20;2.57;;;;;;;9.13;40.23;97393.31;4912439;29;20217;-79
2023/03/18 11:47:26;;;;;;;4.30;2.80;;;;;;;9.47;39.63;97430.00;4913423;29;20213;-77
2023/03/18 11:49:54;;;;;;;3.17;2.23;;;;;;;9.35;39.32;97407.19;4913813;29;20231;-79
2023/03/18 11:52:34;;;;;;;3.90;2.20;;;;;;;9.27;38.83;97424.69;4897161;29;20630;-76
2023/03/18 11:55:06;;;;;;;3.77;2.43;;;;;;;9.33;39.19;97421.91;4911862;29;20226;-82
2023/03/18 11:58:04;;;;;;;3.53;2.10;;;;;;;8.69;39.82;97415.47;4915915;29;20199;-74
2023/03/18 12:00:32;;;;;;;3.77;2.30;;;;;;;8.65;39.39;97420.78;4916225;29;20270;-76